createdAt,value
2023-04-07T00:01:36.763Z,4.22
2023-04-07T00:04:03.902Z,3.95
2023-04-07T00:06:31.426Z,4.50
2023-04-07T00:08:58.249Z,5.97
2023-04-07T00:11:25.655Z,4.85
2023-04-07T00:13:52.656Z,4.75
2023-04-07T00:16:19.869Z,4.72
2023-04-07T00:18:47.015Z,4.38
2023-04-07T00:21:13.881Z,4.28
2023-04-07T00:23:40.712Z,4.55
2023-04-07T00:26:07.560Z,4.35
2023-04-07T00:28:34.461Z,4.88
2023-04-07T00:31:01.419Z,3.95
2023-04-07T00:33:28.285Z,6.18
2023-04-07T00:35:55.121Z,4.95
2023-04-07T00:38:21.937Z,4.70
2023-04-07T00:40:48.854Z,4.45
2023-04-07T00:43:15.706Z,4.43
2023-04-07T00:45:42.813Z,4.85
2023-04-07T00:48:10.876Z,4.72
2023-04-07T00:50:37.756Z,4.57
2023-04-07T00:53:05.573Z,4.28
2023-04-07T00:55:32.599Z,5.57
2023-04-07T00:57:59.602Z,4.72
2023-04-07T01:00:28.148Z,4.13
2023-04-07T01:03:06.396Z,4.50
2023-04-07T01:05:33.425Z,3.50
2023-04-07T01:08:06.405Z,4.03
2023-04-07T01:10:54.202Z,3.58
2023-04-07T01:13:29.441Z,3.85
2023-04-07T01:16:11.460Z,5.72
2023-04-07T01:18:46.126Z,3.97
2023-04-07T01:21:18.545Z,4.38
2023-04-07T01:24:08.689Z,3.78
2023-04-07T01:26:36.770Z,3.75
2023-04-07T01:29:28.881Z,3.38
2023-04-07T01:31:58.338Z,3.85
2023-04-07T01:34:26.794Z,4.03
2023-04-07T01:36:56.204Z,3.47
2023-04-07T01:39:23.721Z,3.78
2023-04-07T01:41:53.144Z,4.05
2023-04-07T01:44:21.202Z,3.28
2023-04-07T01:46:51.284Z,4.03
2023-04-07T01:49:19.346Z,3.47
2023-04-07T01:51:50.374Z,3.92
2023-04-07T01:54:18.358Z,4.22
2023-04-07T01:56:45.509Z,3.95
2023-04-07T01:59:13.071Z,5.00
2023-04-07T02:01:40.890Z,3.83
2023-04-07T02:05:00.259Z,2.95
2023-04-07T02:07:45.884Z,3.92
2023-04-07T02:10:16.398Z,4.53
2023-04-07T02:12:47.081Z,3.47
2023-04-07T02:15:18.500Z,5.55
2023-04-07T02:17:50.024Z,3.65
2023-04-07T02:20:17.831Z,3.33
2023-04-07T02:22:44.895Z,3.80
2023-04-07T02:25:32.437Z,3.22
2023-04-07T02:28:00.787Z,4.18
2023-04-07T02:30:28.325Z,2.90
2023-04-07T02:32:56.588Z,3.60
2023-04-07T02:35:23.488Z,2.85
2023-04-07T02:37:50.645Z,3.60
2023-04-07T02:40:18.179Z,3.97
2023-04-07T02:42:45.414Z,4.68
2023-04-07T02:45:12.383Z,4.00
2023-04-07T02:47:40.046Z,3.35
2023-04-07T02:50:07.501Z,3.83
2023-04-07T02:52:35.888Z,3.40
2023-04-07T02:55:07.311Z,3.40
2023-04-07T02:57:34.853Z,3.55
2023-04-07T03:00:04.974Z,3.63
2023-04-07T03:02:48.270Z,3.83
2023-04-07T03:05:16.664Z,3.47
2023-04-07T03:07:43.587Z,4.25
2023-04-07T03:10:11.212Z,4.60
2023-04-07T03:12:38.278Z,3.00
2023-04-07T03:15:05.539Z,3.40
2023-04-07T03:17:33.839Z,3.58
2023-04-07T03:20:00.896Z,3.88
2023-04-07T03:22:27.762Z,4.65
2023-04-07T03:24:54.638Z,5.80
2023-04-07T03:27:24.241Z,4.10
2023-04-07T03:29:51.354Z,3.85
2023-04-07T03:32:18.580Z,3.78
2023-04-07T03:34:45.634Z,3.33
2023-04-07T03:37:13.856Z,3.17
2023-04-07T03:39:42.153Z,3.78
2023-04-07T03:42:31.652Z,3.15
2023-04-07T03:45:02.959Z,3.28
2023-04-07T03:47:31.834Z,3.63
2023-04-07T03:50:01.889Z,3.88
2023-04-07T03:52:32.001Z,3.35
2023-04-07T03:55:07.676Z,6.15
2023-04-07T03:57:34.986Z,3.50
2023-04-07T04:00:03.041Z,3.50
2023-04-07T04:02:43.276Z,3.13
2023-04-07T04:05:13.844Z,3.08
2023-04-07T04:07:40.757Z,3.95
2023-04-07T04:10:08.628Z,3.17
2023-04-07T04:12:41.702Z,3.53
2023-04-07T04:15:11.078Z,4.57
2023-04-07T04:17:39.232Z,4.90
2023-04-07T04:20:07.030Z,3.28
2023-04-07T04:22:42.000Z,4.60
2023-04-07T04:25:09.465Z,3.83
2023-04-07T04:27:37.489Z,3.47
2023-04-07T04:30:11.777Z,3.72
2023-04-07T04:32:45.300Z,4.80
2023-04-07T04:35:12.332Z,4.40
2023-04-07T04:37:48.810Z,3.85
2023-04-07T04:40:16.115Z,4.22
2023-04-07T04:42:46.467Z,3.80
2023-04-07T04:45:14.203Z,3.58
2023-04-07T04:47:46.067Z,3.38
2023-04-07T04:50:13.356Z,4.05
2023-04-07T04:52:41.924Z,3.95
2023-04-07T04:55:16.107Z,3.83
2023-04-07T04:57:43.885Z,5.10
2023-04-07T05:00:14.170Z,4.03
2023-04-07T05:02:43.984Z,3.63
2023-04-07T05:05:11.348Z,3.85
2023-04-07T05:07:40.402Z,3.75
2023-04-07T05:10:09.809Z,4.15
2023-04-07T05:12:40.391Z,5.88
2023-04-07T05:15:07.825Z,3.85
2023-04-07T05:17:34.876Z,3.97
2023-04-07T05:20:04.995Z,5.07
2023-04-07T05:22:37.600Z,3.75
2023-04-07T05:25:07.610Z,4.00
2023-04-07T05:27:34.614Z,3.78
2023-04-07T05:30:08.285Z,3.53
2023-04-07T05:32:35.786Z,3.55
2023-04-07T05:35:09.601Z,4.40
2023-04-07T05:37:40.817Z,5.28
2023-04-07T05:40:08.303Z,3.50
2023-04-07T05:42:35.275Z,4.20
2023-04-07T05:45:04.574Z,3.33
2023-04-07T05:47:32.465Z,3.42
2023-04-07T05:50:00.961Z,4.28
2023-04-07T05:52:27.956Z,5.85
2023-04-07T05:55:06.802Z,4.70
2023-04-07T05:57:34.677Z,3.47
2023-04-07T06:00:04.608Z,5.18
2023-04-07T06:02:41.589Z,3.45
2023-04-07T06:05:14.550Z,4.57
2023-04-07T06:07:41.707Z,4.47
2023-04-07T06:10:09.000Z,3.92
2023-04-07T06:12:35.823Z,5.38
2023-04-07T06:15:02.624Z,3.90
2023-04-07T06:17:29.450Z,5.53
2023-04-07T06:19:56.588Z,3.45
2023-04-07T06:22:23.513Z,5.55
2023-04-07T06:24:50.335Z,3.90
2023-04-07T06:27:18.480Z,5.78
2023-04-07T06:29:47.851Z,4.60
2023-04-07T06:32:14.771Z,4.28
2023-04-07T06:34:41.732Z,4.85
2023-04-07T06:37:09.563Z,4.60
2023-04-07T06:39:36.634Z,3.63
2023-04-07T06:42:03.507Z,6.55
2023-04-07T06:44:36.342Z,5.18
2023-04-07T06:47:03.406Z,3.95
2023-04-07T06:49:30.177Z,4.13
2023-04-07T06:51:56.952Z,3.22
2023-04-07T06:54:23.733Z,3.97
2023-04-07T06:56:52.715Z,4.10
2023-04-07T06:59:20.652Z,4.30
2023-04-07T07:01:47.875Z,3.78
2023-04-07T07:04:14.999Z,5.10
2023-04-07T07:06:42.046Z,4.13
2023-04-07T07:09:08.949Z,3.92
2023-04-07T07:11:35.946Z,4.63
2023-04-07T07:14:02.811Z,6.13
2023-04-07T07:16:29.618Z,6.32
2023-04-07T07:18:56.701Z,4.03
2023-04-07T07:21:23.481Z,4.68
2023-04-07T07:23:50.568Z,6.05
2023-04-07T07:26:17.460Z,4.68
2023-04-07T07:28:44.374Z,4.57
2023-04-07T07:31:13.321Z,5.00
2023-04-07T07:33:41.539Z,6.45
2023-04-07T07:36:08.673Z,5.53
2023-04-07T07:38:37.028Z,5.00
2023-04-07T07:41:04.726Z,5.00
2023-04-07T07:43:31.700Z,6.35
2023-04-07T07:45:58.649Z,6.90
2023-04-07T07:48:25.828Z,6.93
2023-04-07T07:50:53.022Z,5.38
2023-04-07T07:53:19.897Z,5.13
2023-04-07T07:55:47.352Z,5.38
2023-04-07T07:58:14.226Z,5.45
2023-04-07T08:00:41.366Z,5.63
2023-04-07T08:03:08.381Z,7.13
2023-04-07T08:05:35.392Z,4.88
2023-04-07T08:08:03.045Z,4.82
2023-04-07T08:10:29.939Z,5.78
2023-04-07T08:12:56.831Z,5.05
2023-04-07T08:15:23.853Z,6.75
2023-04-07T08:17:51.099Z,5.40
2023-04-07T08:20:18.044Z,7.93
2023-04-07T08:22:44.860Z,6.18
2023-04-07T08:25:11.841Z,5.28
2023-04-07T08:27:38.799Z,7.22
2023-04-07T08:30:07.279Z,7.00
2023-04-07T08:32:39.023Z,6.30
2023-04-07T08:35:06.310Z,4.80
2023-04-07T08:37:34.217Z,6.90
2023-04-07T08:40:02.087Z,6.55
2023-04-07T08:42:31.221Z,5.30
2023-04-07T08:45:02.427Z,4.20
2023-04-07T08:47:33.454Z,4.80
2023-04-07T08:50:07.142Z,4.90
2023-04-07T08:52:48.817Z,5.00
2023-04-07T08:55:15.913Z,5.00
2023-04-07T08:57:43.605Z,6.13
2023-04-07T09:00:11.569Z,4.70
2023-04-07T09:02:40.815Z,5.00
2023-04-07T09:05:09.123Z,6.43
2023-04-07T09:07:37.911Z,6.72
2023-04-07T09:10:05.910Z,4.88
2023-04-07T09:12:34.538Z,6.13
2023-04-07T09:15:01.697Z,4.85
2023-04-07T09:17:29.784Z,7.78
2023-04-07T09:19:58.501Z,5.53
2023-04-07T09:22:39.806Z,5.60
2023-04-07T09:25:10.688Z,3.53
2023-04-07T09:27:37.527Z,7.13
2023-04-07T09:30:15.753Z,4.82
2023-04-07T09:32:42.811Z,6.80
2023-04-07T09:35:10.116Z,4.13
2023-04-07T09:37:37.468Z,4.35
2023-04-07T09:40:04.965Z,6.00
2023-04-07T09:42:35.386Z,5.22
2023-04-07T09:45:02.799Z,5.82
2023-04-07T09:47:31.643Z,4.25
2023-04-07T09:50:01.985Z,4.13
2023-04-07T09:52:54.621Z,4.95
2023-04-07T09:55:22.966Z,4.82
2023-04-07T09:57:51.233Z,4.68
2023-04-07T10:00:19.122Z,5.03
2023-04-07T10:02:46.730Z,5.97
2023-04-07T10:05:14.050Z,3.92
2023-04-07T10:07:42.731Z,3.60
2023-04-07T10:10:10.433Z,4.53
2023-04-07T10:12:41.718Z,5.75
2023-04-07T10:15:09.154Z,5.38
2023-04-07T10:17:37.587Z,4.35
2023-04-07T10:20:06.994Z,4.72
2023-04-07T10:22:35.269Z,4.15
2023-04-07T10:25:11.153Z,4.68
2023-04-07T10:27:51.218Z,2.85
2023-04-07T10:30:31.109Z,3.28
2023-04-07T10:32:58.953Z,3.08
2023-04-07T10:35:26.277Z,4.03
2023-04-07T10:38:08.597Z,4.93
2023-04-07T10:40:36.675Z,2.95
2023-04-07T10:43:04.632Z,3.40
2023-04-07T10:46:03.705Z,3.88
2023-04-07T10:48:33.127Z,6.10
2023-04-07T10:51:06.194Z,4.75
2023-04-07T10:53:34.062Z,4.10
2023-04-07T10:56:01.273Z,3.97
2023-04-07T10:58:32.258Z,4.28
2023-04-07T11:01:08.554Z,3.60
2023-04-07T11:03:40.147Z,4.15
2023-04-07T11:06:08.937Z,4.13
2023-04-07T11:08:39.359Z,3.15
2023-04-07T11:11:09.501Z,3.70
2023-04-07T11:13:47.288Z,2.95
2023-04-07T11:16:15.739Z,2.95
2023-04-07T11:18:43.901Z,4.10
2023-04-07T11:21:11.122Z,3.40
2023-04-07T11:23:42.861Z,3.42
2023-04-07T11:26:11.567Z,3.63
2023-04-07T11:28:53.011Z,2.90
2023-04-07T11:31:24.523Z,2.92
2023-04-07T11:33:56.278Z,3.10
2023-04-07T11:36:39.216Z,3.13
2023-04-07T11:39:06.103Z,2.55
2023-04-07T11:41:33.959Z,3.33
2023-04-07T11:44:08.382Z,2.65
2023-04-07T11:49:14.088Z,2.67
2023-04-07T11:51:43.471Z,3.17
2023-04-07T11:54:11.143Z,3.13
2023-04-07T11:56:47.939Z,2.67
2023-04-07T11:59:25.760Z,2.42
2023-04-07T12:01:56.133Z,2.70
2023-04-07T12:04:24.691Z,3.20
2023-04-07T12:06:51.699Z,3.03
2023-04-07T12:09:34.804Z,3.47
2023-04-07T12:12:03.477Z,3.05
2023-04-07T12:14:30.294Z,3.08
2023-04-07T12:16:58.310Z,3.00
2023-04-07T12:19:29.485Z,3.00
2023-04-07T12:21:57.015Z,3.17
2023-04-07T12:24:24.035Z,2.63
2023-04-07T12:26:51.018Z,2.92
2023-04-07T12:29:20.149Z,2.97
2023-04-07T12:31:50.175Z,2.70
2023-04-07T12:34:17.542Z,3.38
2023-04-07T12:36:44.781Z,2.80
2023-04-07T12:39:11.736Z,3.15
2023-04-07T12:41:39.722Z,3.00
2023-04-07T12:44:06.800Z,2.65
2023-04-07T12:46:33.824Z,3.20
2023-04-07T12:49:01.214Z,3.08
2023-04-07T12:51:28.516Z,4.70
2023-04-07T12:53:55.369Z,3.47
2023-04-07T12:56:22.539Z,3.35
2023-04-07T12:58:49.493Z,2.88
2023-04-07T13:01:16.816Z,2.80
2023-04-07T13:03:44.194Z,3.83
2023-04-07T13:06:11.751Z,3.25
2023-04-07T13:08:39.571Z,3.45
2023-04-07T13:11:06.801Z,3.05
2023-04-07T13:13:33.872Z,2.67
2023-04-07T13:16:01.259Z,2.60
2023-04-07T13:18:28.197Z,2.78
2023-04-07T13:21:19.922Z,2.97
2023-04-07T13:23:43.606Z,2.95
2023-04-07T13:26:11.318Z,2.45
2023-04-07T13:28:38.880Z,2.55
2023-04-07T13:31:06.287Z,2.40
2023-04-07T13:33:33.178Z,2.13
2023-04-07T13:35:59.999Z,2.60
2023-04-07T13:38:26.819Z,2.85
2023-04-07T13:40:53.607Z,3.28
2023-04-07T13:43:20.555Z,2.97
2023-04-07T13:45:49.026Z,3.05
2023-04-07T13:48:15.925Z,3.58
2023-04-07T13:50:42.736Z,3.47
2023-04-07T13:53:09.642Z,3.10
2023-04-07T13:55:36.816Z,3.00
2023-04-07T13:58:03.693Z,3.42
2023-04-07T14:00:30.624Z,3.38
2023-04-07T14:02:57.719Z,3.83
2023-04-07T14:05:24.742Z,4.30
2023-04-07T14:07:51.720Z,3.53
2023-04-07T14:10:18.583Z,4.20
2023-04-07T14:12:45.397Z,4.57
2023-04-07T14:15:12.301Z,4.25
2023-04-07T14:17:39.143Z,4.35
2023-04-07T14:20:06.671Z,4.60
2023-04-07T14:22:33.518Z,4.75
2023-04-07T14:25:00.657Z,4.38
2023-04-07T14:27:31.106Z,4.70
2023-04-07T14:29:59.589Z,4.70
2023-04-07T14:32:29.596Z,4.50
2023-04-07T14:34:59.090Z,4.25
2023-04-07T14:37:26.710Z,4.07
2023-04-07T14:40:02.387Z,3.00
2023-04-07T14:42:30.483Z,3.03
2023-04-07T14:44:57.974Z,2.90
2023-04-07T14:47:25.720Z,2.25
2023-04-07T14:49:53.687Z,2.15
2023-04-07T14:52:24.689Z,2.63
2023-04-07T14:54:51.520Z,2.10
2023-04-07T14:57:18.319Z,2.08
2023-04-07T14:59:45.251Z,2.40
2023-04-07T15:02:12.422Z,2.00
2023-04-07T15:04:39.417Z,2.30
2023-04-07T15:07:06.357Z,1.95
2023-04-07T15:09:33.184Z,1.90
2023-04-07T15:12:00.869Z,2.33
2023-04-07T15:14:27.973Z,2.13
2023-04-07T15:16:54.813Z,2.10
2023-04-07T15:19:21.692Z,1.63
2023-04-07T15:21:48.515Z,1.60
2023-04-07T15:24:16.417Z,1.35
2023-04-07T15:26:43.875Z,1.77
2023-04-07T15:29:10.724Z,1.70
2023-04-07T15:31:37.620Z,1.63
2023-04-07T15:34:04.639Z,2.00
2023-04-07T15:36:31.633Z,2.17
2023-04-07T15:39:04.408Z,1.83
2023-04-07T15:41:31.666Z,2.10
2023-04-07T15:44:04.149Z,2.40
2023-04-07T15:46:32.335Z,2.50
2023-04-07T15:48:59.893Z,1.90
2023-04-07T15:51:29.723Z,1.90
2023-04-07T15:53:56.600Z,2.58
2023-04-07T15:56:24.817Z,2.08
2023-04-07T15:58:52.032Z,2.28
2023-04-07T16:01:19.215Z,1.80
2023-04-07T16:03:47.537Z,2.60
2023-04-07T16:06:14.594Z,2.72
2023-04-07T16:08:41.358Z,2.63
2023-04-07T16:11:08.172Z,2.30
2023-04-07T16:13:34.974Z,2.55
2023-04-07T16:16:01.922Z,2.72
2023-04-07T16:18:30.243Z,2.65
2023-04-07T16:20:57.115Z,2.30
2023-04-07T16:23:23.915Z,2.20
2023-04-07T16:25:50.725Z,1.85
2023-04-07T16:28:17.586Z,2.10
2023-04-07T16:30:44.378Z,2.05
2023-04-07T16:33:11.238Z,3.35
2023-04-07T16:35:38.087Z,2.40
2023-04-07T16:38:06.232Z,2.28
2023-04-07T16:40:33.763Z,2.53
2023-04-07T16:43:00.630Z,2.10
2023-04-07T16:45:27.464Z,1.65
2023-04-07T16:47:54.454Z,1.45
2023-04-07T16:50:21.618Z,1.17
2023-04-07T16:52:48.483Z,1.10
2023-04-07T16:55:15.290Z,1.30
2023-04-07T16:57:42.114Z,1.25
2023-04-07T17:00:09.457Z,1.42
2023-04-07T17:02:36.522Z,1.38
2023-04-07T17:05:03.750Z,1.50
2023-04-07T17:07:31.055Z,1.77
2023-04-07T17:09:58.038Z,1.58
2023-04-07T17:12:24.848Z,1.08
2023-04-07T17:14:51.646Z,1.48
2023-04-07T17:17:18.470Z,1.65
2023-04-07T17:19:45.282Z,1.50
2023-04-07T17:22:12.149Z,1.80
2023-04-07T17:24:38.994Z,1.45
2023-04-07T17:27:05.872Z,1.67
2023-04-07T17:29:33.649Z,1.20
2023-04-07T17:32:00.559Z,0.95
2023-04-07T17:34:27.914Z,1.58
2023-04-07T17:36:54.771Z,1.42
2023-04-07T17:39:22.197Z,1.67
2023-04-07T17:41:49.066Z,1.23
2023-04-07T17:44:15.988Z,1.48
2023-04-07T17:46:43.039Z,1.60
2023-04-07T17:49:10.081Z,1.48
2023-04-07T17:51:37.164Z,1.52
2023-04-07T17:54:04.058Z,1.30
2023-04-07T17:56:30.941Z,4.72
2023-04-07T17:58:57.728Z,1.10
2023-04-07T18:01:25.657Z,1.08
2023-04-07T18:03:53.733Z,0.90
2023-04-07T18:06:20.990Z,1.10
2023-04-07T18:08:48.460Z,0.65
2023-04-07T18:11:16.247Z,0.80
2023-04-07T18:13:43.123Z,0.82
2023-04-07T18:16:11.840Z,0.88
2023-04-07T18:18:38.965Z,0.65
2023-04-07T18:21:08.900Z,0.60
2023-04-07T18:23:35.962Z,0.90
2023-04-07T18:26:04.919Z,0.80
2023-04-07T18:28:32.148Z,1.27
2023-04-07T18:31:07.617Z,0.57
2023-04-07T18:33:36.252Z,0.50
2023-04-07T18:36:07.086Z,0.50
2023-04-07T18:38:35.417Z,0.70
2023-04-07T18:41:02.704Z,1.38
2023-04-07T18:43:30.225Z,0.82
2023-04-07T18:45:57.143Z,0.80
2023-04-07T18:48:24.149Z,0.73
2023-04-07T18:50:55.046Z,1.23
2023-04-07T18:53:23.610Z,1.45
2023-04-07T18:55:50.904Z,2.65
2023-04-07T18:58:17.824Z,2.35
2023-04-07T19:00:44.798Z,1.50
2023-04-07T19:03:11.937Z,1.52
2023-04-07T19:05:42.417Z,0.90
2023-04-07T19:08:09.834Z,1.02
2023-04-07T19:10:36.931Z,1.00
2023-04-07T19:13:04.477Z,0.80
2023-04-07T19:15:38.315Z,4.15
2023-04-07T19:18:05.517Z,0.75
2023-04-07T19:20:33.854Z,0.50
2023-04-07T19:23:01.869Z,0.77
2023-04-07T19:25:29.797Z,0.60
2023-04-07T19:27:57.397Z,0.60
2023-04-07T19:30:24.295Z,1.00
2023-04-07T19:32:51.183Z,2.15
2023-04-07T19:35:18.116Z,3.22
2023-04-07T19:37:47.445Z,0.50
2023-04-07T19:40:14.946Z,0.75
2023-04-07T19:42:42.163Z,0.70
2023-04-07T19:45:09.545Z,0.93
2023-04-07T19:47:37.253Z,0.70
2023-04-07T19:50:05.438Z,0.65
2023-04-07T19:52:33.154Z,1.42
2023-04-07T19:55:01.198Z,0.70
2023-04-07T19:57:29.036Z,1.35
2023-04-07T19:59:56.092Z,1.08
2023-04-07T20:02:23.363Z,1.20
2023-04-07T20:04:50.312Z,5.40
2023-04-07T20:07:17.163Z,1.65
2023-04-07T20:09:44.707Z,1.63
2023-04-07T20:12:11.511Z,0.98
2023-04-07T20:14:38.688Z,0.73
2023-04-07T20:17:05.647Z,2.05
2023-04-07T20:19:32.810Z,1.10
2023-04-07T20:21:59.614Z,1.33
2023-04-07T20:24:27.131Z,0.93
2023-04-07T20:26:54.041Z,0.75
2023-04-07T20:29:22.281Z,1.35
2023-04-07T20:31:49.229Z,1.60
2023-04-07T20:34:16.648Z,1.52
2023-04-07T20:36:43.631Z,1.00
2023-04-07T20:39:10.691Z,0.85
2023-04-07T20:41:37.787Z,0.80
2023-04-07T20:44:04.822Z,1.25
2023-04-07T20:46:33.732Z,1.58
2023-04-07T20:49:00.832Z,1.00
2023-04-07T20:51:28.835Z,2.47
2023-04-07T20:53:55.651Z,0.80
2023-04-07T20:56:23.658Z,1.17
2023-04-07T20:58:51.309Z,1.20
2023-04-07T21:01:18.330Z,1.05
2023-04-07T21:03:45.444Z,2.15
2023-04-07T21:06:12.441Z,1.48
2023-04-07T21:08:39.518Z,0.95
2023-04-07T21:11:06.377Z,1.33
2023-04-07T21:13:33.217Z,1.42
2023-04-07T21:16:01.335Z,1.17
2023-04-07T21:18:28.367Z,0.80
2023-04-07T21:20:57.700Z,0.77
2023-04-07T21:23:24.711Z,0.68
2023-04-07T21:25:51.529Z,0.80
2023-04-07T21:28:18.340Z,1.40
2023-04-07T21:30:45.494Z,1.08
2023-04-07T21:33:14.135Z,2.20
2023-04-07T21:35:41.235Z,1.00
2023-04-07T21:38:08.097Z,1.00
2023-04-07T21:40:34.943Z,1.02
2023-04-07T21:43:01.841Z,0.80
2023-04-07T21:45:29.754Z,1.27
2023-04-07T21:47:56.759Z,0.90
2023-04-07T21:50:24.118Z,3.10
2023-04-07T21:52:51.759Z,0.98
2023-04-07T21:55:19.059Z,1.15
2023-04-07T21:57:46.747Z,0.90
2023-04-07T22:00:14.484Z,0.65
2023-04-07T22:02:45.493Z,0.55
2023-04-07T22:05:12.586Z,0.80
2023-04-07T22:07:39.411Z,0.70
2023-04-07T22:10:06.997Z,0.80
2023-04-07T22:12:33.777Z,0.80
2023-04-07T22:15:00.754Z,1.10
2023-04-07T22:17:27.728Z,1.17
2023-04-07T22:19:54.597Z,1.77
2023-04-07T22:22:21.368Z,0.80
2023-04-07T22:24:48.191Z,1.20
2023-04-07T22:27:15.301Z,2.40
2023-04-07T22:29:42.209Z,1.40
2023-04-07T22:32:08.990Z,1.83
2023-04-07T22:34:35.846Z,1.60
2023-04-07T22:37:02.649Z,1.20
2023-04-07T22:39:29.497Z,1.60
2023-04-07T22:41:56.333Z,1.13
2023-04-07T22:44:23.146Z,1.20
2023-04-07T22:46:50.136Z,0.98
2023-04-07T22:49:17.189Z,4.15
2023-04-07T22:51:48.447Z,1.63
2023-04-07T22:54:18.548Z,1.38
2023-04-07T22:56:45.391Z,0.90
2023-04-07T22:59:12.275Z,0.90
2023-04-07T23:01:39.195Z,0.82
2023-04-07T23:04:06.344Z,0.73
2023-04-07T23:06:33.969Z,0.70
2023-04-07T23:09:01.143Z,1.08
2023-04-07T23:11:27.936Z,1.20
2023-04-07T23:13:54.733Z,2.45
2023-04-07T23:16:23.091Z,0.90
2023-04-07T23:18:50.121Z,1.80
2023-04-07T23:21:18.266Z,1.92
2023-04-07T23:23:45.097Z,1.00
2023-04-07T23:26:11.940Z,2.05
2023-04-07T23:28:38.986Z,1.00
2023-04-07T23:31:06.787Z,1.15
2023-04-07T23:33:33.858Z,1.48
2023-04-07T23:36:00.799Z,1.73
2023-04-07T23:38:27.637Z,1.50
2023-04-07T23:40:54.537Z,1.80
2023-04-07T23:43:21.991Z,1.00
2023-04-07T23:45:48.917Z,0.80
2023-04-07T23:48:16.151Z,2.05
2023-04-07T23:50:43.015Z,1.00
2023-04-07T23:53:09.929Z,1.33
2023-04-07T23:55:36.865Z,1.33
2023-04-07T23:58:03.656Z,1.10
